Delta Virtual Airport Information Service

Vancouver International Airport

ICAO: CYVR Country: Canada
Latitude: 49.1939 Longitude: -123.184
Latest Arrival : JZA94 (2) (KSEA-CYVR) Latest Departure : BAW84 (2) (CYVR-EGLL)


WX CaptureLIVE
Data provided by noaa.gov | Fetched at 01:44:48

METAR : CYVR 270709Z 07017G22KT 20SM -RA BKN017 OVC035 03/M02 A2951 RMK SC6SC2 SLP993

TAF : CYVR 270538Z 2706/2812 11010KT P6SM SCT040 BKN060 TEMPO 2707/2712 5SM -RA BR BKN030 FM271200 08010KT P6SM SCT030 BKN060 TEMPO 2712/2718 5SM -RA BR BKN030 FM271800 09010KT P6SM -RA SCT015 OVC030 TEMPO 2718/2722 3SM -RA BR SCT005 BKN015 OVC030 FM272200 07010KT P6SM SCT020 BKN030 TEMPO 2722/2802 BKN020 FM280200 06008KT P6SM SCT040 BECMG 2804/2806 VRB03KT BKN060 BKN120 RMK NXT FCST BY 270900Z


Runway Data for CYVR
Data provided by openaviationdata.com

Runway ID Mag Var Hdg Length Elevation Surface ILS Freq ILS Id ILS Slope
08L 19 81° 9918 ft 14 ft Concrete 110.55 ITL 3
08R 19 80° 11962 ft 14 ft Asphalt 109.5 IVR 3
12 19 122° 7290 ft 14 ft Asphalt 111.1 IMK 3
26L 19 260° 11962 ft 14 ft Asphalt 110.7 IFZ 3
26R 19 261° 9918 ft 14 ft Concrete 111.95 IRD 3
30 19 302° 7290 ft 14 ft Asphalt -- -- --

Vancouver International Airport, Canada
Use only for reference purposes



Not for navigational purposes.